Terminal Aerodrome Forecast
Issued by NWS

Home | Current Version | Previous Version | Text Only | Print | Product List | Glossary On
Versions: 1 2 3 4 5 6 7 8 9 10 11 12 13 14 15 16
667
FTUS44 KSJT 260520
TAFSOA
TAF
KSOA 260520Z 2606/2706 VRB03KT P6SM BKN060
     FM261100 VRB03KT 5SM BR SCT100
     FM261500 18005KT P6SM SCT250=

USA.gov is the U.S. government's official web portal to all federal, state and local government web resources and services.